Time;durP1;ratioP1;P1;durP2;ratioP2;P2;SDS_P1;SDS_P2;PMS_P1;PMS_P2;Temp;Humidity;BMP_temperature;BMP_pressure;BME280_temperature;BME280_humidity;BME280_pressure;Samples;Min_cycle;Max_cycle;Signal;HPM_P1;HPM_P2
2021/11/10 00:02:02;;;;;;;;;48.40;39.00;;;;;8.94;51.77;100316.50;6181801;28;97501;-67
2021/11/10 00:05:07;;;;;;;;;45.40;37.60;;;;;9.04;51.60;100317.13;6189938;28;98326;-64
2021/11/10 00:08:12;;;;;;;;;50.00;39.40;;;;;9.08;51.48;100315.75;6187865;28;96654;-63
2021/11/10 00:11:16;;;;;;;;;48.40;37.20;;;;;9.10;51.54;100327.16;6212069;28;97405;-66
2021/11/10 00:14:20;;;;;;;;;48.00;39.00;;;;;9.06;51.08;100325.84;6177245;28;96918;-64
2021/11/10 00:17:24;;;;;;;;;49.00;39.00;;;;;9.02;50.96;100324.53;6210516;28;96924;-65
2021/11/10 00:20:28;;;;;;;;;47.00;39.00;;;;;8.94;51.19;100328.09;6210358;28;96679;-64
2021/11/10 00:23:31;;;;;;;;;48.00;39.00;;;;;8.91;50.80;100336.50;6190614;28;97287;-65
2021/11/10 00:26:35;;;;;;;;;48.00;37.80;;;;;8.84;51.06;100327.50;6174842;28;99485;-65
2021/11/10 00:29:40;;;;;;;;;49.60;38.00;;;;;8.85;50.70;100341.75;6192607;28;96955;-64
2021/11/10 00:32:43;;;;;;;;;45.75;36.00;;;;;8.83;50.64;100339.25;6182458;28;97443;-64
2021/11/10 00:35:46;;;;;;;;;46.00;38.00;;;;;8.83;50.53;100347.31;6211184;28;96625;-64
2021/11/10 00:38:50;;;;;;;;;49.00;38.00;;;;;8.83;50.71;100344.63;6193515;28;97098;-64
2021/11/10 00:41:53;;;;;;;;;47.00;38.00;;;;;8.82;49.99;100350.19;6206024;28;97452;-65
2021/11/10 00:44:57;;;;;;;;;48.20;38.60;;;;;8.80;50.45;100346.81;6200842;28;97447;-64
2021/11/10 00:48:01;;;;;;;;;47.00;37.80;;;;;8.79;50.38;100350.53;6208173;28;97142;-65
2021/11/10 00:51:06;;;;;;;;;45.25;38.00;;;;;8.66;50.71;100334.94;6184361;28;97486;-64
2021/11/10 00:54:09;;;;;;;;;47.00;38.20;;;;;8.69;50.25;100340.84;6210183;28;97467;-65
2021/11/10 00:57:13;;;;;;;;;49.25;39.00;;;;;8.67;50.28;100333.94;6209847;28;96669;-65
2021/11/10 01:00:19;;;;;;;;;48.40;39.40;;;;;8.60;50.07;100331.09;6187534;28;97033;-65
2021/11/10 01:03:27;;;;;;;;;45.00;38.00;;;;;8.56;49.93;100321.72;6185367;28;97607;-65
2021/11/10 01:06:34;;;;;;;;;46.60;38.00;;;;;8.49;50.48;100322.59;6193502;28;96917;-64
2021/11/10 01:09:41;;;;;;;;;49.00;38.50;;;;;8.41;50.58;100323.44;6177375;28;96658;-64
2021/11/10 01:12:44;;;;;;;;;51.00;39.80;;;;;8.36;50.62;100323.13;6211111;28;96842;-65
2021/11/10 01:15:49;;;;;;;;;48.00;39.50;;;;;8.28;50.72;100317.75;6190312;28;98180;-65
2021/11/10 01:18:53;;;;;;;;;51.00;39.00;;;;;8.31;50.80;100314.72;6153641;28;98575;-64
2021/11/10 01:22:01;;;;;;;;;48.40;38.60;;;;;8.22;50.98;100318.41;6186395;28;96969;-65
2021/11/10 01:25:07;;;;;;;;;47.00;39.00;;;;;8.17;51.09;100301.97;6157616;28;99811;-64
2021/11/10 01:28:11;;;;;;;;;47.00;38.20;;;;;8.07;51.42;100306.69;6182237;28;96807;-65
2021/11/10 01:31:17;;;;;;;;;52.00;41.00;;;;;8.06;51.70;100302.34;6195917;28;96686;-64
2021/11/10 01:34:21;;;;;;;;;46.20;37.60;;;;;8.06;51.77;100286.25;6186538;28;96974;-64
2021/11/10 01:37:28;;;;;;;;;47.00;37.00;;;;;8.06;51.95;100275.50;6194098;28;98286;-65
2021/11/10 01:40:33;;;;;;;;;45.40;37.40;;;;;8.12;51.74;100280.16;6173853;28;98089;-64
2021/11/10 01:43:37;;;;;;;;;45.00;36.20;;;;;8.10;51.60;100284.88;6199637;28;97267;-64
2021/11/10 01:46:42;;;;;;;;;47.20;36.00;;;;;8.12;51.92;100283.69;6192911;28;97504;-64
2021/11/10 01:49:45;;;;;;;;;45.80;36.80;;;;;8.11;50.94;100284.69;6194898;28;97706;-64
2021/11/10 01:52:52;;;;;;;;;45.00;38.00;;;;;8.07;51.25;100290.59;6195225;28;97431;-65
2021/11/10 01:55:57;;;;;;;;;45.00;36.00;;;;;8.03;51.13;100300.84;6194920;28;96723;-64
2021/11/10 01:59:02;;;;;;;;;45.00;38.00;;;;;8.02;50.99;100301.84;6195303;28;96938;-65
2021/11/10 02:02:11;;;;;;;;;44.40;36.00;;;;;8.05;50.76;100304.22;6195511;28;97567;-64
2021/11/10 02:05:15;;;;;;;;;47.20;37.60;;;;;8.08;51.30;100303.00;6164598;28;97162;-64
2021/11/10 02:08:19;;;;;;;;;47.00;36.00;;;;;8.10;50.98;100292.94;6190702;28;97324;-64
2021/11/10 02:11:22;;;;;;;;;46.20;36.00;;;;;8.06;51.21;100286.25;6188010;28;97128;-65
2021/11/10 02:14:35;;;;;;;;;46.40;37.40;;;;;7.91;51.00;100277.22;6185709;28;96932;-65
2021/11/10 02:17:39;;;;;;;;;47.00;36.60;;;;;7.80;51.81;100268.50;6177018;28;96646;-64
2021/11/10 02:20:48;;;;;;;;;49.00;39.00;;;;;7.82;52.09;100273.69;6194563;28;97258;-65
2021/11/10 02:23:52;;;;;;;;;45.00;38.00;;;;;7.83;51.98;100276.19;6196422;28;97026;-65
2021/11/10 02:26:56;;;;;;;;;49.00;39.00;;;;;7.84;51.96;100274.34;6212223;28;97420;-64
2021/11/10 02:29:59;;;;;;;;;46.60;38.40;;;;;7.83;52.10;100270.84;6210796;28;97650;-64
2021/11/10 02:33:04;;;;;;;;;48.00;38.00;;;;;7.91;51.93;100270.00;6175868;28;97747;-64
2021/11/10 02:36:09;;;;;;;;;45.00;36.00;;;;;7.90;51.78;100270.16;6194379;28;97225;-65
2021/11/10 02:39:16;;;;;;;;;46.20;36.40;;;;;7.90;51.57;100287.09;6178172;28;99256;-64
2021/11/10 02:42:20;;;;;;;;;45.00;35.50;;;;;7.84;51.46;100271.66;6195613;28;96955;-64
2021/11/10 02:45:25;;;;;;;;;41.25;33.50;;;;;7.83;51.57;100270.84;6193050;28;96763;-64
2021/11/10 02:48:28;;;;;;;;;40.00;33.80;;;;;7.86;51.68;100274.19;6208515;28;97416;-65
2021/11/10 02:51:33;;;;;;;;;43.00;35.40;;;;;7.85;51.31;100267.97;6203355;28;97482;-64
2021/11/10 02:54:42;;;;;;;;;40.60;32.60;;;;;7.84;51.48;100264.47;6191296;28;97997;-63
2021/11/10 02:57:45;;;;;;;;;42.80;33.00;;;;;7.87;51.29;100268.63;6213545;28;96554;-67
2021/11/10 03:00:49;;;;;;;;;40.00;33.50;;;;;7.79;51.37;100265.97;6205436;28;96843;-67
2021/11/10 03:03:53;;;;;;;;;39.60;32.60;;;;;7.74;51.25;100277.22;6187922;28;98555;-65
2021/11/10 03:06:59;;;;;;;;;44.40;33.40;;;;;7.74;51.38;100261.13;6195366;28;97426;-66
2021/11/10 03:10:03;;;;;;;;;38.80;33.00;;;;;7.76;51.53;100266.31;6212070;28;96655;-65
2021/11/10 03:13:06;;;;;;;;;41.00;34.00;;;;;7.74;51.37;100263.81;6207904;28;97010;-65
2021/11/10 03:16:10;;;;;;;;;38.75;32.25;;;;;7.72;51.13;100273.84;6193357;28;97450;-65
2021/11/10 03:19:14;;;;;;;;;36.50;32.25;;;;;7.71;51.10;100258.78;6211811;28;97562;-66
2021/11/10 03:22:20;;;;;;;;;39.60;33.60;;;;;7.61;51.10;100243.84;6167463;28;96609;-66
2021/11/10 03:25:25;;;;;;;;;38.60;32.40;;;;;7.53;51.15;100243.84;6193300;28;98388;-66
2021/11/10 03:28:29;;;;;;;;;39.40;32.00;;;;;7.53;51.37;100254.59;6177670;28;98312;-67
2021/11/10 03:31:36;;;;;;;;;40.00;33.00;;;;;7.56;51.31;100252.41;6193821;28;96717;-67
2021/11/10 03:34:40;;;;;;;;;36.40;33.00;;;;;7.59;50.89;100262.81;6176896;28;97038;-67
2021/11/10 03:37:45;;;;;;;;;43.80;34.60;;;;;7.54;50.76;100267.84;6209595;28;97542;-66
2021/11/10 03:40:50;;;;;;;;;37.00;32.60;;;;;7.45;50.53;100258.13;6178053;28;97760;-65
2021/11/10 03:43:58;;;;;;;;;35.00;30.60;;;;;7.39;50.39;100256.94;6186587;28;98034;-67
2021/11/10 03:47:01;;;;;;;;;35.20;31.00;;;;;7.31;50.44;100250.75;6178484;28;97922;-65
2021/11/10 03:50:07;;;;;;;;;34.40;30.20;;;;;7.25;50.81;100244.22;6204751;28;97513;-66
2021/11/10 03:53:13;;;;;;;;;38.67;32.00;;;;;7.21;50.61;100253.59;6178761;28;97245;-66
2021/11/10 03:56:16;;;;;;;;;30.00;28.00;;;;;7.17;50.96;100241.53;6196476;28;97071;-67
2021/11/10 03:59:20;;;;;;;;;36.40;30.00;;;;;7.20;51.00;100234.97;6195667;28;96999;-65
2021/11/10 04:02:26;;;;;;;;;32.80;28.80;;;;;7.30;50.91;100238.34;6179060;28;97725;-66
2021/11/10 04:05:30;;;;;;;;;34.00;30.00;;;;;7.27;51.57;100236.00;6193915;28;97366;-66
2021/11/10 04:08:35;;;;;;;;;39.00;32.00;;;;;7.25;51.76;100229.94;6213072;28;96554;-65
2021/11/10 04:11:39;;;;;;;;;32.60;30.00;;;;;7.25;52.35;100233.47;6194275;28;98543;-65
2021/11/10 04:14:47;;;;;;;;;30.00;27.60;;;;;7.29;52.72;100231.28;6195023;28;97486;-65
2021/11/10 04:17:50;;;;;;;;;34.60;30.80;;;;;7.35;52.68;100234.16;6194923;28;96730;-65
2021/11/10 04:20:54;;;;;;;;;37.80;32.00;;;;;7.37;52.53;100224.09;6195725;28;97657;-66
2021/11/10 04:24:00;;;;;;;;;34.20;30.60;;;;;7.39;52.55;100210.50;6194970;28;96621;-66
2021/11/10 04:27:04;;;;;;;;;37.00;31.00;;;;;7.46;52.17;100200.78;6195136;28;97416;-65
2021/11/10 04:30:11;;;;;;;;;39.00;32.00;;;;;7.52;51.81;100196.56;6212944;28;97999;-66
2021/11/10 04:33:15;;;;;;;;;37.20;31.00;;;;;7.51;52.09;100200.25;6194718;28;97377;-67
2021/11/10 04:36:19;;;;;;;;;34.00;30.00;;;;;7.55;52.14;100198.91;6194478;28;97318;-66
2021/11/10 04:39:29;;;;;;;;;37.40;30.00;;;;;7.59;52.07;100190.34;6194300;28;96749;-65
2021/11/10 04:42:33;;;;;;;;;34.00;30.00;;;;;7.60;52.18;100189.34;6192207;28;97567;-66
2021/11/10 04:45:39;;;;;;;;;35.00;32.00;;;;;7.63;51.60;100191.66;6192420;28;96665;-67
2021/11/10 04:48:43;;;;;;;;;39.60;32.60;;;;;7.61;51.46;100188.34;6210037;28;97778;-67
2021/11/10 04:51:47;;;;;;;;;33.50;30.00;;;;;7.62;50.56;100187.34;6219538;28;96688;-67
2021/11/10 04:54:52;;;;;;;;;34.00;29.00;;;;;7.61;50.72;100184.81;6214231;28;96937;-66
2021/11/10 04:57:56;;;;;;;;;37.40;31.00;;;;;7.60;50.77;100189.34;6178390;28;98714;-65
2021/11/10 05:01:01;;;;;;;;;33.50;31.00;;;;;7.56;50.78;100195.22;6195971;28;97216;-67
2021/11/10 05:04:06;;;;;;;;;37.00;30.75;;;;;7.49;51.02;100195.06;6183151;28;97493;-67
2021/11/10 05:07:12;;;;;;;;;38.00;32.00;;;;;7.46;51.41;100192.72;6195499;28;97087;-65
2021/11/10 05:10:20;;;;;;;;;37.00;32.00;;;;;7.46;51.68;100198.09;6177745;28;97544;-65
2021/11/10 05:13:33;;;;;;;;;37.50;32.00;;;;;7.50;51.99;100193.22;6190468;28;97125;-65
2021/11/10 05:16:36;;;;;;;;;34.67;30.67;;;;;7.60;51.81;100192.03;6194525;28;97507;-66
2021/11/10 05:19:44;;;;;;;;;33.40;30.00;;;;;7.62;51.79;100198.06;6192822;28;97404;-67
2021/11/10 05:23:08;;;;;;;;;37.40;32.00;;;;;7.61;51.96;100196.38;6188022;28;97448;-67
2021/11/10 05:26:12;;;;;;;;;37.40;32.00;;;;;7.65;52.14;100202.25;6191311;28;99626;-65
2021/11/10 05:29:16;;;;;;;;;38.00;32.00;;;;;7.64;52.30;100196.03;6175816;28;96660;-66
2021/11/10 05:32:19;;;;;;;;;34.00;31.00;;;;;7.63;52.24;100197.03;6210434;28;96634;-65
2021/11/10 05:35:23;;;;;;;;;39.20;33.00;;;;;7.66;52.36;100201.25;6188952;28;97892;-66
2021/11/10 05:38:26;;;;;;;;;36.50;30.75;;;;;7.72;52.51;100200.56;6198927;28;97558;-67
2021/11/10 05:41:31;;;;;;;;;37.00;30.00;;;;;7.72;52.29;100190.63;6209371;28;97246;-67
2021/11/10 05:44:34;;;;;;;;;35.80;30.80;;;;;7.71;52.13;100196.19;6206036;28;96982;-65
2021/11/10 05:47:38;;;;;;;;;35.40;30.60;;;;;7.66;52.12;100191.34;6206861;28;97207;-67
2021/11/10 05:50:41;;;;;;;;;35.00;30.00;;;;;7.64;52.20;100177.25;6192423;28;96616;-66
2021/11/10 05:53:45;;;;;;;;;35.00;30.00;;;;;7.65;52.41;100172.72;6207665;28;98054;-66
2021/11/10 05:56:50;;;;;;;;;30.00;26.80;;;;;7.69;52.23;100187.47;6226919;28;96576;-66
2021/11/10 05:59:53;;;;;;;;;32.00;28.00;;;;;7.68;52.07;100191.16;6212400;28;96995;-66
2021/11/10 06:02:57;;;;;;;;;32.80;29.40;;;;;7.74;52.33;100193.16;6203150;28;99463;-67
2021/11/10 06:06:01;;;;;;;;;35.40;30.40;;;;;7.82;52.22;100193.97;6234225;28;97397;-66
2021/11/10 06:09:04;;;;;;;;;35.33;30.67;;;;;7.92;52.32;100203.66;6232149;28;97418;-65
2021/11/10 06:12:11;;;;;;;;;31.20;29.00;;;;;8.01;52.32;100205.34;6228963;28;97729;-65
2021/11/10 06:15:14;;;;;;;;;38.40;31.60;;;;;8.05;52.25;100206.66;6218878;28;96821;-66
2021/11/10 06:18:18;;;;;;;;;34.20;30.80;;;;;8.09;52.36;100202.63;6235656;28;96764;-66
2021/11/10 06:21:21;;;;;;;;;36.75;31.00;;;;;8.19;52.02;100208.63;6231884;28;97489;-63
2021/11/10 06:24:28;;;;;;;;;35.60;31.00;;;;;8.22;51.97;100208.25;6234370;28;97242;-64
2021/11/10 06:27:33;;;;;;;;;32.80;27.80;;;;;8.24;52.19;100209.78;6216054;28;96793;-69
2021/11/10 06:30:36;;;;;;;;;32.00;29.60;;;;;8.23;51.99;100207.25;6223686;28;97505;-64
2021/11/10 06:33:40;;;;;;;;;35.20;32.00;;;;;8.24;52.23;100192.81;6237289;28;97361;-66
2021/11/10 06:36:43;;;;;;;;;36.60;32.40;;;;;8.10;51.65;100199.78;6233709;28;96582;-64
2021/11/10 06:39:46;;;;;;;;;36.00;30.00;;;;;8.29;51.31;100217.31;6227109;28;97668;-65
2021/11/10 06:42:51;;;;;;;;;31.60;29.60;;;;;8.25;51.53;100218.69;6189975;28;99421;-65
2021/11/10 06:45:55;;;;;;;;;33.75;30.00;;;;;8.26;51.63;100221.19;6194708;28;97448;-66
2021/11/10 06:48:58;;;;;;;;;34.20;30.40;;;;;8.32;51.55;100216.16;6205981;28;97411;-66
2021/11/10 06:52:04;;;;;;;;;37.00;31.50;;;;;8.34;51.03;100225.72;6204591;28;96823;-66
2021/11/10 06:55:08;;;;;;;;;35.00;30.00;;;;;8.39;51.37;100227.88;6196314;28;96745;-67
2021/11/10 06:58:13;;;;;;;;;39.50;32.00;;;;;8.47;51.33;100228.69;6195331;28;97626;-66
2021/11/10 07:01:16;;;;;;;;;36.00;30.00;;;;;8.58;51.84;100220.22;6226219;28;97422;-63
2021/11/10 07:04:20;;;;;;;;;32.40;29.40;;;;;8.77;51.10;100220.78;6220184;28;97343;-64
2021/11/10 07:07:23;;;;;;;;;31.40;29.00;;;;;8.93;50.77;100213.47;6227388;28;96676;-64
2021/11/10 07:10:26;;;;;;;;;32.80;29.80;;;;;9.08;50.17;100218.91;6227546;28;97048;-63
2021/11/10 07:13:31;;;;;;;;;36.80;32.00;;;;;9.14;50.04;100210.09;6227468;28;96765;-64
2021/11/10 07:16:35;;;;;;;;;32.60;30.00;;;;;9.15;50.22;100192.94;6209782;27;99533;-64
2021/11/10 07:19:39;;;;;;;;;34.25;30.00;;;;;9.24;50.15;100201.78;6232122;28;97940;-66
2021/11/10 07:22:42;;;;;;;;;36.20;30.00;;;;;9.21;49.40;100194.91;6225119;28;96554;-65
2021/11/10 07:25:46;;;;;;;;;34.25;31.00;;;;;9.35;49.17;100196.81;6226078;28;96631;-66
2021/11/10 07:28:51;;;;;;;;;33.40;30.00;;;;;9.34;49.70;100188.91;6227209;28;96600;-66
2021/11/10 07:31:55;;;;;;;;;30.60;27.60;;;;;9.51;50.06;100191.28;6228426;28;97269;-66
2021/11/10 07:34:58;;;;;;;;;31.33;27.00;;;;;9.74;49.01;100195.75;6211593;28;97143;-65
2021/11/10 07:38:02;;;;;;;;;27.20;25.80;;;;;9.98;49.00;100195.47;6229330;28;97198;-67
2021/11/10 07:41:06;;;;;;;;;31.60;29.00;;;;;10.14;48.95;100192.59;6225439;28;97459;-66
2021/11/10 07:44:12;;;;;;;;;34.00;28.00;;;;;10.35;48.53;100194.56;6227787;28;97447;-66
2021/11/10 07:47:16;;;;;;;;;29.20;29.00;;;;;10.48;48.42;100193.88;6202870;28;100288;-67
2021/11/10 07:50:23;;;;;;;;;33.00;29.00;;;;;10.64;47.98;100191.81;6225028;28;97270;-68
2021/11/10 07:53:26;;;;;;;;;31.40;28.40;;;;;10.86;47.52;100192.66;6204383;28;97752;-64
2021/11/10 07:56:30;;;;;;;;;31.33;29.33;;;;;10.98;46.42;100192.97;6211065;28;96867;-64
2021/11/10 07:59:35;;;;;;;;;33.00;29.00;;;;;11.10;46.46;100184.16;6223782;28;96648;-66
2021/11/10 08:02:39;;;;;;;;;32.50;27.50;;;;;11.27;46.37;100199.09;6200898;28;99470;-64
2021/11/10 08:05:43;;;;;;;;;33.00;30.40;;;;;11.34;45.94;100188.31;6222620;28;96615;-68
2021/11/10 08:08:46;;;;;;;;;31.80;28.80;;;;;11.67;45.84;100192.13;6227325;28;96741;-65
2021/11/10 08:11:50;;;;;;;;;28.00;26.00;;;;;11.95;45.24;100183.19;6228595;28;97442;-68
2021/11/10 08:14:54;;;;;;;;;31.20;28.20;;;;;12.05;44.55;100183.66;6227035;28;96729;-67
2021/11/10 08:17:58;;;;;;;;;32.60;28.60;;;;;12.23;44.93;100183.13;6227621;28;97556;-65
2021/11/10 08:21:01;;;;;;;;;31.20;28.20;;;;;12.26;44.87;100185.44;6223167;28;96799;-67
2021/11/10 08:24:05;;;;;;;;;33.00;30.00;;;;;12.35;44.48;100181.53;6202883;28;96704;-66
2021/11/10 08:27:08;;;;;;;;;38.20;31.60;;;;;12.57;44.33;100177.66;6211217;28;98119;-66
2021/11/10 08:30:15;;;;;;;;;32.00;29.00;;;;;12.85;43.67;100175.63;6212151;28;97530;-68
2021/11/10 08:33:20;;;;;;;;;31.50;29.50;;;;;13.22;43.55;100176.16;6212059;28;99452;-65
2021/11/10 08:36:23;;;;;;;;;31.40;29.00;;;;;13.62;42.95;100168.84;6175874;28;98623;-66
2021/11/10 08:39:26;;;;;;;;;34.50;28.50;;;;;14.13;41.51;100169.75;6196523;28;96917;-65
2021/11/10 08:42:32;;;;;;;;;30.00;27.00;;;;;14.26;41.12;100168.91;6228814;28;97442;-70
2021/11/10 08:45:38;;;;;;;;;34.80;30.00;;;;;14.37;40.48;100167.44;6203455;28;96941;-64
2021/11/10 08:48:42;;;;;;;;;33.20;30.00;;;;;14.66;41.02;100162.25;6191206;28;96797;-66
2021/11/10 08:51:45;;;;;;;;;33.00;30.00;;;;;15.65;38.58;100147.13;6207550;28;98022;-64
2021/11/10 08:54:49;;;;;;;;;34.50;30.00;;;;;15.43;38.17;100138.53;6193561;28;96690;-67
2021/11/10 08:57:54;;;;;;;;;32.20;28.80;;;;;15.11;38.34;100140.44;6211075;28;96730;-65
2021/11/10 09:01:00;;;;;;;;;38.80;32.00;;;;;14.80;39.20;100144.03;6191355;28;98391;-65
2021/11/10 09:04:05;;;;;;;;;38.60;32.00;;;;;14.73;40.21;100137.78;6211255;28;97539;-68
2021/11/10 09:07:08;;;;;;;;;38.25;32.00;;;;;15.36;39.60;100135.03;6211711;28;97519;-64
2021/11/10 09:10:14;;;;;;;;;35.80;31.80;;;;;15.74;38.16;100140.34;6211354;28;97302;-64
2021/11/10 09:13:17;;;;;;;;;34.20;32.00;;;;;16.24;37.41;100128.25;6212247;28;97557;-63
2021/11/10 09:16:21;;;;;;;;;37.00;31.80;;;;;16.92;36.23;100138.03;6215771;28;97489;-66
2021/11/10 09:19:25;;;;;;;;;37.00;32.00;;;;;17.99;35.33;100134.13;6211147;28;96898;-67
2021/11/10 09:22:28;;;;;;;;;38.80;32.00;;;;;19.52;33.51;100133.25;6192701;28;98301;-70
2021/11/10 09:25:32;;;;;;;;;40.40;33.40;;;;;20.93;31.15;100124.13;6184279;28;97217;-64
2021/11/10 09:28:36;;;;;;;;;40.00;33.00;;;;;22.38;29.10;100132.88;6210528;28;97152;-66
2021/11/10 09:31:41;;;;;;;;;42.50;35.00;;;;;23.59;27.07;100124.84;6221349;28;97452;-66
2021/11/10 09:34:45;;;;;;;;;41.25;34.75;;;;;24.65;25.95;100128.38;6197065;28;96890;-66
2021/11/10 09:37:52;;;;;;;;;38.80;32.00;;;;;25.21;24.86;100128.88;6192585;28;98626;-64
2021/11/10 09:40:59;;;;;;;;;36.80;31.80;;;;;25.74;23.82;100129.81;6216236;27;97570;-63
2021/11/10 09:44:02;;;;;;;;;37.00;32.00;;;;;25.44;23.88;100122.59;6196272;28;98493;-64
2021/11/10 09:47:09;;;;;;;;;37.80;33.00;;;;;24.88;24.25;100109.22;6214854;28;96627;-63
2021/11/10 09:50:15;;;;;;;;;38.00;32.00;;;;;25.01;24.65;100111.34;6215726;28;96859;-65
2021/11/10 09:53:19;;;;;;;;;41.00;33.00;;;;;24.72;24.11;100123.38;6205460;28;96603;-64
2021/11/10 09:56:24;;;;;;;;;37.80;32.40;;;;;24.75;24.30;100114.53;6201026;28;97429;-65
2021/11/10 09:59:28;;;;;;;;;37.00;32.00;;;;;25.31;24.11;100113.06;6215372;28;97133;-64
2021/11/10 10:02:33;;;;;;;;;40.80;33.00;;;;;25.78;23.80;100104.06;6193841;28;97857;-64
2021/11/10 10:05:37;;;;;;;;;39.60;33.00;;;;;26.23;23.25;100099.97;6205774;28;96471;-62
2021/11/10 10:08:40;;;;;;;;;37.00;31.60;;;;;26.88;22.68;100086.38;6214764;28;96937;-61
2021/11/10 10:11:45;;;;;;;;;38.40;32.40;;;;;27.36;21.87;100095.28;6215126;28;97590;-61
2021/11/10 10:14:52;;;;;;;;;37.00;32.00;;;;;27.65;21.49;100085.94;6210568;28;96634;-63
2021/11/10 10:17:59;;;;;;;;;39.20;31.00;;;;;27.69;21.24;100086.97;6194289;28;99538;-66
2021/11/10 10:21:06;;;;;;;;;39.25;33.00;;;;;27.90;21.23;100082.69;6205779;28;97467;-65
2021/11/10 10:24:11;;;;;;;;;38.40;33.00;;;;;28.06;21.05;100077.63;6213494;28;98189;-64
2021/11/10 10:27:26;;;;;;;;;38.20;32.60;;;;;28.06;20.79;100077.63;6196113;28;98031;-65
2021/11/10 10:30:33;;;;;;;;;40.00;33.00;;;;;28.24;20.63;100077.56;6195216;28;97805;-63
2021/11/10 10:33:40;;;;;;;;;41.40;35.00;;;;;28.50;20.78;100055.63;6179485;28;97827;-65
2021/11/10 10:36:46;;;;;;;;;38.50;33.00;;;;;28.59;20.37;100041.84;6200922;28;96977;-63
2021/11/10 10:40:03;;;;;;;;;36.00;32.00;;;;;28.82;20.28;100049.09;6173446;28;97802;-64
2021/11/10 10:43:07;;;;;;;;;40.00;31.50;;;;;28.95;20.37;100039.06;6212147;28;97480;-64
2021/11/10 10:46:11;;;;;;;;;39.00;33.00;;;;;28.80;20.01;100032.75;6213257;28;97527;-64
2021/11/10 10:49:18;;;;;;;;;40.00;33.00;;;;;28.54;20.63;100028.09;6212777;28;97461;-64
2021/11/10 10:52:21;;;;;;;;;42.20;35.00;;;;;28.13;20.94;100022.63;6187195;28;98785;-64
2021/11/10 10:55:37;;;;;;;;;43.40;35.40;;;;;28.08;21.05;100015.22;6214005;28;96672;-64
2021/11/10 10:58:41;;;;;;;;;37.60;32.00;;;;;28.39;21.24;100009.84;6210569;28;97277;-67
2021/11/10 11:01:50;;;;;;;;;44.80;35.00;;;;;28.61;20.47;100006.28;6211574;28;96716;-63
2021/11/10 11:04:56;;;;;;;;;45.40;35.00;;;;;28.81;20.17;100008.59;6208062;28;97301;-65
2021/11/10 11:08:00;;;;;;;;;38.00;33.00;;;;;29.16;20.07;100006.88;6220494;28;97253;-66
2021/11/10 11:11:21;;;;;;;;;37.40;33.00;;;;;29.33;20.28;100000.59;6194699;28;96976;-64
2021/11/10 11:14:37;;;;;;;;;39.25;33.00;;;;;29.50;19.64;99997.94;6192209;28;99533;-67
2021/11/10 11:17:43;;;;;;;;;40.60;34.00;;;;;29.38;19.90;99987.41;6190848;28;96944;-67
2021/11/10 11:20:49;;;;;;;;;36.25;32.75;;;;;29.19;20.31;99984.00;6194730;28;98600;-64
2021/11/10 11:23:56;;;;;;;;;39.50;33.00;;;;;29.44;20.55;99988.91;6209948;28;97378;-65
2021/11/10 11:27:14;;;;;;;;;41.20;35.60;;;;;29.69;20.23;99979.03;6213438;28;97534;-64
2021/11/10 11:30:17;;;;;;;;;41.40;33.00;;;;;29.85;20.20;99968.31;6208303;28;97537;-66
2021/11/10 11:33:22;;;;;;;;;44.60;35.00;;;;;30.03;19.77;99967.22;6184474;28;96979;-65
2021/11/10 11:36:49;;;;;;;;;44.00;34.40;;;;;29.99;19.60;99964.28;6214091;28;96914;-66
2021/11/10 11:39:55;;;;;;;;;41.00;35.00;;;;;30.04;20.26;99961.34;6194338;28;97264;-66
2021/11/10 11:42:59;;;;;;;;;41.25;34.75;;;;;30.21;19.66;99945.81;6211276;28;97122;-64
2021/11/10 11:46:03;;;;;;;;;42.20;35.00;;;;;30.34;20.01;99951.22;6207383;28;98441;-67
2021/11/10 11:49:07;;;;;;;;;39.40;33.80;;;;;30.45;19.77;99946.13;6211670;28;97451;-65
2021/11/10 11:52:12;;;;;;;;;42.40;33.00;;;;;30.52;19.77;99943.72;6177678;28;97937;-64
2021/11/10 11:55:21;;;;;;;;;44.50;36.00;;;;;30.51;19.45;99936.50;6211632;28;97422;-63
2021/11/10 11:58:28;;;;;;;;;44.00;36.00;;;;;30.45;19.98;99933.03;6209442;28;98424;-66
2021/11/10 12:01:33;;;;;;;;;42.20;35.00;;;;;30.44;20.00;99934.22;6210025;28;97543;-64
2021/11/10 12:04:37;;;;;;;;;40.50;33.50;;;;;30.36;19.72;99920.28;6206230;28;96994;-67
2021/11/10 12:07:56;;;;;;;;;40.60;34.00;;;;;30.19;20.23;99925.84;6213601;28;97223;-64
2021/11/10 12:11:29;;;;;;;;;36.75;33.00;;;;;29.92;20.21;99913.06;6212752;28;97427;-66
2021/11/10 12:14:33;;;;;;;;;37.60;32.40;;;;;29.61;20.88;99904.81;6231192;28;97511;-65
2021/11/10 12:18:05;;;;;;;;;35.00;32.00;;;;;29.45;21.15;99904.44;6227435;28;97443;-65
2021/11/10 12:21:11;;;;;;;;;37.40;33.00;;;;;29.19;21.02;99890.41;6230556;28;96646;-64
2021/11/10 12:24:19;;;;;;;;;38.80;32.00;;;;;28.88;21.73;99895.16;6227626;28;97319;-63
2021/11/10 12:27:37;;;;;;;;;37.60;32.80;;;;;28.62;22.20;99888.59;6206909;28;96782;-65
2021/11/10 12:30:44;;;;;;;;;37.00;31.00;;;;;28.33;21.96;99876.00;6220480;28;97225;-67
2021/11/10 12:33:48;;;;;;;;;34.20;31.80;;;;;27.94;22.86;99873.03;6227393;28;97250;-65
2021/11/10 12:36:53;;;;;;;;;36.00;31.00;;;;;27.67;22.87;99875.88;6208755;28;97462;-63
2021/11/10 12:40:10;;;;;;;;;32.00;30.00;;;;;27.44;23.76;99863.88;6219913;28;97418;-66
2021/11/10 12:43:16;;;;;;;;;37.40;31.00;;;;;27.11;23.92;99866.75;6197502;28;97190;-64
2021/11/10 12:46:21;;;;;;;;;33.80;31.00;;;;;26.84;24.43;99869.47;6216982;28;96556;-63
2021/11/10 12:49:26;;;;;;;;;33.50;30.00;;;;;26.78;24.56;99872.66;6231503;28;98000;-64
2021/11/10 12:52:44;;;;;;;;;33.00;28.00;;;;;26.72;24.74;99866.38;6228309;28;96671;-66
2021/11/10 12:55:55;;;;;;;;;32.00;30.00;;;;;26.66;25.23;99862.06;6210550;28;97414;-64
2021/11/10 12:59:02;;;;;;;;;32.40;27.60;;;;;26.56;25.35;99840.94;6224325;28;97195;-62
2021/11/10 13:02:13;;;;;;;;;34.00;28.60;;;;;26.53;25.47;99843.50;6196431;28;97533;-62
2021/11/10 13:05:24;;;;;;;;;29.60;26.80;;;;;26.16;25.63;99823.06;6184351;28;98037;-62
2021/11/10 13:08:30;;;;;;;;;33.00;30.00;;;;;26.26;25.75;99846.97;6210442;28;98066;-67
2021/11/10 13:11:40;;;;;;;;;28.00;27.00;;;;;26.13;25.72;99828.38;6212936;28;97468;-64
2021/11/10 13:14:46;;;;;;;;;28.60;25.40;;;;;25.94;26.01;99822.06;6213818;28;97483;-66
2021/11/10 13:17:51;;;;;;;;;28.40;26.00;;;;;26.04;26.15;99832.94;6212253;28;97104;-67
2021/11/10 13:21:02;;;;;;;;;28.00;25.40;;;;;25.83;26.15;99822.22;6198691;28;98166;-65
2021/11/10 13:24:11;;;;;;;;;29.00;26.00;;;;;25.50;26.17;99833.44;6199802;28;99631;-63
2021/11/10 13:27:26;;;;;;;;;28.00;25.00;;;;;25.06;27.39;99825.44;6202624;28;97462;-65
2021/11/10 13:30:33;;;;;;;;;23.40;21.00;;;;;24.74;27.90;99829.63;6194463;28;98101;-64
2021/11/10 13:33:39;;;;;;;;;26.00;24.40;;;;;24.57;28.16;99816.31;6193266;28;97729;-65
2021/11/10 13:36:43;;;;;;;;;28.00;25.00;;;;;24.39;28.54;99816.19;6197076;28;101387;-62
2021/11/10 13:39:57;;;;;;;;;25.00;23.50;;;;;24.13;28.75;99810.88;6211591;28;96532;-64
2021/11/10 13:43:02;;;;;;;;;26.75;22.75;;;;;23.84;29.10;99812.78;6211952;28;96997;-64
2021/11/10 13:46:09;;;;;;;;;25.00;22.60;;;;;23.57;29.44;99809.63;6176145;28;98620;-65
2021/11/10 13:49:16;;;;;;;;;21.00;20.00;;;;;23.19;29.60;99794.66;6216523;28;97574;-66
2021/11/10 13:52:21;;;;;;;;;22.60;19.00;;;;;23.26;29.78;99804.25;6207288;28;97621;-63
2021/11/10 13:55:25;;;;;;;;;20.00;19.00;;;;;23.18;30.29;99804.03;6231459;28;96953;-64
2021/11/10 13:58:31;;;;;;;;;23.00;20.60;;;;;22.92;30.12;99772.25;6228810;28;97577;-68
2021/11/10 14:01:35;;;;;;;;;25.50;21.50;;;;;22.93;30.49;99795.88;6231313;28;96726;-64
2021/11/10 14:04:41;;;;;;;;;24.40;21.60;;;;;22.69;30.68;99796.47;6192716;28;97362;-65
2021/11/10 14:07:46;;;;;;;;;25.00;21.00;;;;;22.48;30.96;99796.81;6207799;28;99573;-64
2021/11/10 14:10:55;;;;;;;;;19.50;18.00;;;;;22.10;31.73;99771.56;6206828;28;97152;-65